createdAt,value
2017-06-15T00:00:31.847Z,17.71
2017-06-15T00:01:12.762Z,17.63
2017-06-15T00:01:53.650Z,17.74
2017-06-15T00:02:34.553Z,17.68
2017-06-15T00:03:15.433Z,17.7
2017-06-15T00:03:56.319Z,17.72
2017-06-15T00:04:37.216Z,17.7
2017-06-15T00:05:18.109Z,17.67
2017-06-15T00:05:59.017Z,17.7
2017-06-15T00:06:39.913Z,17.68
2017-06-15T00:07:20.800Z,17.7
2017-06-15T00:08:01.700Z,17.67
2017-06-15T00:08:42.587Z,17.63
2017-06-15T00:09:23.480Z,17.68
2017-06-15T00:10:04.375Z,17.74
2017-06-15T00:10:45.255Z,17.63
2017-06-15T00:11:26.144Z,17.67
2017-06-15T00:12:07.050Z,17.63
2017-06-15T00:12:47.936Z,17.59
2017-06-15T00:13:28.840Z,17.67
2017-06-15T00:14:09.739Z,17.79
2017-06-15T00:14:50.630Z,17.76
2017-06-15T00:15:31.525Z,17.6
2017-06-15T00:16:12.407Z,17.59
2017-06-15T00:16:53.287Z,17.57
2017-06-15T00:17:34.180Z,17.67
2017-06-15T00:18:15.084Z,17.54
2017-06-15T00:18:55.991Z,17.57
2017-06-15T00:19:36.874Z,17.64
2017-06-15T00:20:17.769Z,17.64
2017-06-15T00:20:58.661Z,17.56
2017-06-15T00:21:39.553Z,17.74
2017-06-15T00:22:20.450Z,17.63
2017-06-15T00:23:01.349Z,17.74
2017-06-15T00:23:42.223Z,17.71
2017-06-15T00:24:23.113Z,17.52
2017-06-15T00:25:04.021Z,17.63
2017-06-15T00:25:44.903Z,17.59
2017-06-15T00:26:25.805Z,17.63
2017-06-15T00:27:06.694Z,17.63
2017-06-15T00:27:47.582Z,17.57
2017-06-15T00:28:28.462Z,17.56
2017-06-15T00:29:09.351Z,17.63
2017-06-15T00:29:50.258Z,17.52
2017-06-15T00:30:31.152Z,17.6
2017-06-15T00:31:12.046Z,17.63
2017-06-15T00:31:52.934Z,17.51
2017-06-15T00:32:33.831Z,17.63
2017-06-15T00:33:14.706Z,17.52
2017-06-15T00:33:55.599Z,17.39
2017-06-15T00:34:36.509Z,17.34
2017-06-15T00:35:17.402Z,17.38
2017-06-15T00:35:58.283Z,17.27
2017-06-15T00:36:39.167Z,17.27
2017-06-15T00:37:20.057Z,17.15
2017-06-15T00:38:00.945Z,17.2
2017-06-15T00:38:41.834Z,17.12
2017-06-15T00:39:22.739Z,17.12
2017-06-15T00:40:03.635Z,17.12
2017-06-15T00:40:44.515Z,17.05
2017-06-15T00:41:25.414Z,17.11
2017-06-15T00:42:06.301Z,17.08
2017-06-15T00:42:47.191Z,17.05
2017-06-15T00:43:28.093Z,17.05
2017-06-15T00:44:08.983Z,17.15
2017-06-15T00:44:49.883Z,17.19
2017-06-15T00:45:30.775Z,17.22
2017-06-15T00:46:11.671Z,17.29
2017-06-15T00:46:52.565Z,17.31
2017-06-15T00:47:33.444Z,17.22
2017-06-15T00:48:14.331Z,17.24
2017-06-15T00:48:55.228Z,17.29
2017-06-15T00:49:36.127Z,17.16
2017-06-15T00:50:17.017Z,17.26
2017-06-15T00:50:57.912Z,17.24
2017-06-15T00:51:38.799Z,17.15
2017-06-15T00:52:19.685Z,17.14
2017-06-15T00:53:00.594Z,17.19
2017-06-15T00:53:41.479Z,17.05
2017-06-15T00:54:22.374Z,17.09
2017-06-15T00:55:03.248Z,17.11
2017-06-15T00:55:44.153Z,17.06
2017-06-15T00:56:25.039Z,17.04
2017-06-15T00:57:05.923Z,17.06
2017-06-15T00:57:46.828Z,17.05
2017-06-15T00:58:27.715Z,17.11
2017-06-15T00:59:08.597Z,17.08
2017-06-15T00:59:49.494Z,17.19
2017-06-15T01:00:30.393Z,17.19
2017-06-15T01:01:11.270Z,17.24
2017-06-15T01:01:52.170Z,17.33
2017-06-15T01:02:33.038Z,17.27
2017-06-15T01:03:13.931Z,17.27
2017-06-15T01:03:54.822Z,17.26
2017-06-15T01:04:35.745Z,17.24
2017-06-15T01:05:16.625Z,17.3
2017-06-15T01:05:57.506Z,17.27
2017-06-15T01:06:38.397Z,17.22
2017-06-15T01:07:19.282Z,17.22
2017-06-15T01:08:00.187Z,17.22
2017-06-15T01:08:41.066Z,17.31
2017-06-15T01:09:21.953Z,17.22
2017-06-15T01:10:02.830Z,17.27
2017-06-15T01:10:43.718Z,17.26
2017-06-15T01:11:24.615Z,17.24
2017-06-15T01:12:05.510Z,17.24
2017-06-15T01:12:46.395Z,17.27
2017-06-15T01:13:27.303Z,17.16
2017-06-15T01:14:08.194Z,17.15
2017-06-15T01:14:49.091Z,17.16
2017-06-15T01:15:29.996Z,17.19
2017-06-15T01:16:10.888Z,17.14
2017-06-15T01:16:51.769Z,17.15
2017-06-15T01:17:32.670Z,17.19
2017-06-15T01:18:13.557Z,17.16
2017-06-15T01:18:54.445Z,17.16
2017-06-15T01:19:35.345Z,17.2
2017-06-15T01:20:16.232Z,17.2
2017-06-15T01:20:57.122Z,17.11
2017-06-15T01:21:38.025Z,17.04
2017-06-15T01:22:18.897Z,17.04
2017-06-15T01:22:59.794Z,17.04
2017-06-15T01:23:40.685Z,16.94
2017-06-15T01:24:21.561Z,16.97
2017-06-15T01:25:02.453Z,17.02
2017-06-15T01:25:43.343Z,17.06
2017-06-15T01:26:24.240Z,17.06
2017-06-15T01:27:05.111Z,17.11
2017-06-15T01:27:46.012Z,17.09
2017-06-15T01:28:26.909Z,17.05
2017-06-15T01:29:07.786Z,17.04
2017-06-15T01:29:48.680Z,17.02
2017-06-15T01:30:29.570Z,17.04
2017-06-15T01:31:10.447Z,17.06
2017-06-15T01:31:51.331Z,17.08
2017-06-15T01:32:32.245Z,17.11
2017-06-15T01:33:13.125Z,17.06
2017-06-15T01:33:54.014Z,17.04
2017-06-15T01:34:34.904Z,17.12
2017-06-15T01:35:15.804Z,17.04
2017-06-15T01:35:56.691Z,17.06
2017-06-15T01:36:37.578Z,17.12
2017-06-15T01:37:18.470Z,17.08
2017-06-15T01:37:59.348Z,17.04
2017-06-15T01:38:40.240Z,17.11
2017-06-15T01:39:21.136Z,17.12
2017-06-15T01:40:02.022Z,17.01
2017-06-15T01:40:42.916Z,16.97
2017-06-15T01:41:23.803Z,16.9
2017-06-15T01:42:04.680Z,16.89
2017-06-15T01:42:45.559Z,16.9
2017-06-15T01:43:26.459Z,16.86
2017-06-15T01:44:07.354Z,16.78
2017-06-15T01:44:48.241Z,16.71
2017-06-15T01:45:29.152Z,16.66
2017-06-15T01:46:10.052Z,16.64
2017-06-15T01:46:50.944Z,16.68
2017-06-15T01:47:31.847Z,16.71
2017-06-15T01:48:12.738Z,16.64
2017-06-15T01:48:53.646Z,16.69
2017-06-15T01:49:34.528Z,16.81
2017-06-15T01:50:15.412Z,16.69
2017-06-15T01:50:56.304Z,16.75
2017-06-15T01:51:37.198Z,16.81
2017-06-15T01:52:18.081Z,16.86
2017-06-15T01:52:58.969Z,16.84
2017-06-15T01:53:39.859Z,16.83
2017-06-15T01:54:20.756Z,16.83
2017-06-15T01:55:01.651Z,16.86
2017-06-15T01:55:42.549Z,16.84
2017-06-15T01:56:23.427Z,16.9
2017-06-15T01:57:04.319Z,16.87
2017-06-15T01:57:45.215Z,16.86
2017-06-15T01:58:26.104Z,16.89
2017-06-15T01:59:06.994Z,16.89
2017-06-15T01:59:47.901Z,16.83
2017-06-15T02:00:28.780Z,16.86
2017-06-15T02:01:09.667Z,16.79
2017-06-15T02:01:50.558Z,16.72
2017-06-15T02:02:31.462Z,16.76
2017-06-15T02:03:12.364Z,16.72
2017-06-15T02:03:53.254Z,16.71
2017-06-15T02:04:34.145Z,16.65
2017-06-15T02:05:15.037Z,16.74
2017-06-15T02:05:55.932Z,16.69
2017-06-15T02:06:36.822Z,16.69
2017-06-15T02:07:17.706Z,16.75
2017-06-15T02:07:58.593Z,16.79
2017-06-15T02:08:39.488Z,16.79
2017-06-15T02:09:20.363Z,16.76
2017-06-15T02:10:01.277Z,16.86
2017-06-15T02:10:42.179Z,16.79
2017-06-15T02:11:23.068Z,16.84
2017-06-15T02:12:03.967Z,16.75
2017-06-15T02:12:44.842Z,16.69
2017-06-15T02:13:25.730Z,16.68
2017-06-15T02:14:06.616Z,16.58
2017-06-15T02:14:47.510Z,16.66
2017-06-15T02:15:28.417Z,16.61
2017-06-15T02:16:09.308Z,16.71
2017-06-15T02:16:50.190Z,16.61
2017-06-15T02:17:31.070Z,16.65
2017-06-15T02:18:11.945Z,16.56
2017-06-15T02:18:52.841Z,16.56
2017-06-15T02:19:33.731Z,16.51
2017-06-15T02:20:14.622Z,16.54
2017-06-15T02:20:55.523Z,16.54
2017-06-15T02:21:36.401Z,16.41
2017-06-15T02:22:17.307Z,16.41
2017-06-15T02:22:58.206Z,16.39
2017-06-15T02:23:39.124Z,16.36
2017-06-15T02:24:20.006Z,16.29
2017-06-15T02:25:00.889Z,16.31
2017-06-15T02:25:41.776Z,16.35
2017-06-15T02:26:22.660Z,16.26
2017-06-15T02:27:03.570Z,16.31
2017-06-15T02:27:44.454Z,16.26
2017-06-15T02:28:25.366Z,16.28
2017-06-15T02:29:06.251Z,16.33
2017-06-15T02:29:47.130Z,16.32
2017-06-15T02:30:28.016Z,16.47
2017-06-15T02:31:08.919Z,16.41
2017-06-15T02:31:49.829Z,16.38
2017-06-15T02:32:30.714Z,16.41
2017-06-15T02:33:11.590Z,16.49
2017-06-15T02:33:52.479Z,16.39
2017-06-15T02:34:33.363Z,16.53
2017-06-15T02:35:14.275Z,16.47
2017-06-15T02:35:55.157Z,16.43
2017-06-15T02:36:36.040Z,16.5
2017-06-15T02:37:16.924Z,16.39
2017-06-15T02:37:57.806Z,16.35
2017-06-15T02:38:38.689Z,16.32
2017-06-15T02:39:19.579Z,16.39
2017-06-15T02:40:00.460Z,16.26
2017-06-15T02:40:41.345Z,16.31
2017-06-15T02:41:22.227Z,16.28
2017-06-15T02:42:03.109Z,16.29
2017-06-15T02:42:44.045Z,16.26
2017-06-15T02:43:24.931Z,16.12
2017-06-15T02:44:05.829Z,16.09
2017-06-15T02:44:46.700Z,16.16
2017-06-15T02:45:27.597Z,16.09
2017-06-15T02:46:08.485Z,16.12
2017-06-15T02:46:49.370Z,16.15
2017-06-15T02:47:30.247Z,16.13
2017-06-15T02:48:11.137Z,16.13
2017-06-15T02:48:52.019Z,16.16
2017-06-15T02:49:32.902Z,16.16
2017-06-15T02:50:13.804Z,16.17
2017-06-15T02:50:54.693Z,16.13
2017-06-15T02:51:35.579Z,16.12
2017-06-15T02:52:16.464Z,16.09
2017-06-15T02:52:57.334Z,16.01
2017-06-15T02:53:38.227Z,16.09
2017-06-15T02:54:19.116Z,16.13
2017-06-15T02:54:59.992Z,16.01
2017-06-15T02:55:40.869Z,16
2017-06-15T02:56:21.747Z,16.01
2017-06-15T02:57:02.644Z,15.98
2017-06-15T02:57:43.531Z,16.01
2017-06-15T02:58:24.401Z,15.95
2017-06-15T02:59:05.279Z,16.02
2017-06-15T02:59:46.202Z,15.94
2017-06-15T03:00:27.073Z,16.01
2017-06-15T03:01:08.068Z,15.97
2017-06-15T03:01:48.959Z,15.98
2017-06-15T03:02:30.165Z,16
2017-06-15T03:03:11.085Z,15.97
2017-06-15T03:03:51.965Z,16
2017-06-15T03:04:32.872Z,15.92
2017-06-15T03:05:13.764Z,15.97
2017-06-15T03:05:54.644Z,15.98
2017-06-15T03:06:35.535Z,15.92
2017-06-15T03:07:16.416Z,16.01
2017-06-15T03:07:57.320Z,15.97
2017-06-15T03:08:38.200Z,15.95
2017-06-15T03:09:19.098Z,16.08
2017-06-15T03:09:59.990Z,16.12
2017-06-15T03:10:40.873Z,16.12
2017-06-15T03:11:21.766Z,16.12
2017-06-15T03:12:02.670Z,16.21
2017-06-15T03:12:43.570Z,16.31
2017-06-15T03:13:24.466Z,16.28
2017-06-15T03:14:05.344Z,16.29
2017-06-15T03:14:46.228Z,16.35
2017-06-15T03:15:27.122Z,16.31
2017-06-15T03:16:08.002Z,16.33
2017-06-15T03:16:48.889Z,16.36
2017-06-15T03:17:29.817Z,16.32
2017-06-15T03:18:10.742Z,16.36
2017-06-15T03:18:51.637Z,16.46
2017-06-15T03:20:19.764Z,16.41
2017-06-15T03:21:00.649Z,16.49
2017-06-15T03:21:41.543Z,16.46
2017-06-15T03:22:22.420Z,16.54
2017-06-15T03:23:03.302Z,16.43
2017-06-15T03:23:44.182Z,16.51
2017-06-15T03:24:25.072Z,16.41
2017-06-15T03:25:05.955Z,16.38
2017-06-15T03:25:46.841Z,16.49
2017-06-15T03:26:27.724Z,16.42
2017-06-15T03:27:08.607Z,16.49
2017-06-15T03:27:49.492Z,16.56
2017-06-15T03:28:30.365Z,16.43
2017-06-15T03:29:11.277Z,16.38
2017-06-15T03:29:52.158Z,16.33
2017-06-15T03:30:33.040Z,16.32
2017-06-15T03:31:13.926Z,16.36
2017-06-15T03:31:54.818Z,16.43
2017-06-15T03:32:35.705Z,16.53
2017-06-15T03:33:16.604Z,16.43
2017-06-15T03:33:57.491Z,16.51
2017-06-15T03:34:38.368Z,16.47
2017-06-15T03:35:19.263Z,16.47
2017-06-15T03:36:00.135Z,16.5
2017-06-15T03:36:41.032Z,16.54
2017-06-15T03:37:21.907Z,16.54
2017-06-15T03:38:02.852Z,16.57
2017-06-15T03:38:43.743Z,16.56
2017-06-15T03:39:24.633Z,16.5
2017-06-15T03:40:05.510Z,16.54
2017-06-15T03:40:46.395Z,16.56
2017-06-15T03:41:27.279Z,16.54
2017-06-15T03:42:08.178Z,16.58
2017-06-15T03:42:49.060Z,16.57
2017-06-15T03:43:29.948Z,16.53
2017-06-15T03:44:10.845Z,16.56
2017-06-15T03:44:51.736Z,16.47
2017-06-15T03:45:32.627Z,16.51
2017-06-15T03:46:13.523Z,16.64
2017-06-15T03:46:54.420Z,16.64
2017-06-15T03:47:35.322Z,16.46
2017-06-15T03:48:16.237Z,16.53
2017-06-15T03:48:57.161Z,16.51
2017-06-15T03:49:38.053Z,16.54
2017-06-15T03:50:18.943Z,16.5
2017-06-15T03:50:59.838Z,16.64
2017-06-15T03:51:40.726Z,16.58
2017-06-15T03:52:21.615Z,16.64
2017-06-15T03:53:02.501Z,16.68
2017-06-15T03:53:43.386Z,16.61
2017-06-15T03:54:24.267Z,16.61
2017-06-15T03:55:05.172Z,16.66
2017-06-15T03:55:46.062Z,16.65
2017-06-15T03:56:26.951Z,16.65
2017-06-15T03:57:07.833Z,16.64
2017-06-15T03:57:48.737Z,16.61
2017-06-15T03:58:29.638Z,16.65
2017-06-15T03:59:10.522Z,16.68
2017-06-15T03:59:51.424Z,16.66
2017-06-15T04:00:32.319Z,16.69
2017-06-15T04:01:13.205Z,16.68
2017-06-15T04:01:54.101Z,16.78
2017-06-15T04:02:35.012Z,16.86
2017-06-15T04:03:15.913Z,16.89
2017-06-15T04:03:56.808Z,16.91
2017-06-15T04:04:37.707Z,16.99
2017-06-15T04:05:18.598Z,16.93
2017-06-15T04:05:59.460Z,16.96
2017-06-15T04:06:40.433Z,16.99
2017-06-15T04:07:21.323Z,16.94
2017-06-15T04:08:02.206Z,17.04
2017-06-15T04:08:43.092Z,17.04
2017-06-15T04:09:24.008Z,17.11
2017-06-15T04:10:04.902Z,17.06
2017-06-15T04:10:45.794Z,17.09
2017-06-15T04:11:26.681Z,17.06
2017-06-15T04:12:07.580Z,17.22
2017-06-15T04:12:48.472Z,17.24
2017-06-15T04:13:29.369Z,17.15
2017-06-15T04:14:10.259Z,17.19
2017-06-15T04:14:51.152Z,17.15
2017-06-15T04:15:32.039Z,17.2
2017-06-15T04:16:12.937Z,17.23
2017-06-15T04:16:53.815Z,17.27
2017-06-15T04:17:34.707Z,17.31
2017-06-15T04:18:15.606Z,17.31
2017-06-15T04:18:56.497Z,17.34
2017-06-15T04:19:37.387Z,17.33
2017-06-15T04:20:18.290Z,17.38
2017-06-15T04:20:59.193Z,17.41
2017-06-15T04:21:40.061Z,17.41
2017-06-15T04:22:20.961Z,17.36
2017-06-15T04:23:01.854Z,17.34
2017-06-15T04:23:42.740Z,17.49
2017-06-15T04:24:23.648Z,17.59
2017-06-15T04:25:04.531Z,17.57
2017-06-15T04:25:45.418Z,17.56
2017-06-15T04:26:26.318Z,17.64
2017-06-15T04:27:07.205Z,17.74
2017-06-15T04:27:48.093Z,17.63
2017-06-15T04:28:28.985Z,17.59
2017-06-15T04:29:09.884Z,17.49
2017-06-15T04:29:50.780Z,17.27
2017-06-15T04:30:31.662Z,17.52
2017-06-15T04:31:12.559Z,17.63
2017-06-15T04:31:53.440Z,17.74
2017-06-15T04:32:34.333Z,17.68
2017-06-15T04:33:15.226Z,17.76
2017-06-15T04:33:56.118Z,17.79
2017-06-15T04:34:37.019Z,17.87
2017-06-15T04:35:17.896Z,18.01
2017-06-15T04:35:58.790Z,17.8
2017-06-15T04:36:39.684Z,17.95
2017-06-15T04:37:20.601Z,18.1
2017-06-15T04:38:01.492Z,18.07
2017-06-15T04:38:42.383Z,18.13
2017-06-15T04:39:23.282Z,18.08
2017-06-15T04:40:04.178Z,17.85
2017-06-15T04:40:45.073Z,18.04
2017-06-15T04:41:25.965Z,18.1
2017-06-15T04:42:06.865Z,18.07
2017-06-15T04:42:47.747Z,17.85
2017-06-15T04:43:28.647Z,17.83
2017-06-15T04:44:09.549Z,18.01
2017-06-15T04:44:50.439Z,18.11
2017-06-15T04:45:31.332Z,18.13
2017-06-15T04:46:12.229Z,18.22
2017-06-15T04:46:53.169Z,18.19
2017-06-15T04:47:34.057Z,18.29
2017-06-15T04:48:14.948Z,18.33
2017-06-15T04:48:55.855Z,18.41
2017-06-15T04:49:36.741Z,18.4
2017-06-15T04:50:17.640Z,18.26
2017-06-15T04:50:58.534Z,18.2
2017-06-15T04:51:39.421Z,18.22
2017-06-15T04:52:20.306Z,18.37
2017-06-15T04:53:01.206Z,18.08
2017-06-15T04:53:42.124Z,18.15
2017-06-15T04:54:23.034Z,18.26
2017-06-15T04:55:03.906Z,18.16
2017-06-15T04:55:44.803Z,18.25
2017-06-15T04:56:25.700Z,18.05
2017-06-15T04:57:06.579Z,18.25
2017-06-15T04:57:47.468Z,18.2
2017-06-15T04:58:28.362Z,18.34
2017-06-15T04:59:09.256Z,18.33
2017-06-15T04:59:50.207Z,18.44
2017-06-15T05:00:31.085Z,18.33
2017-06-15T05:01:11.995Z,18.11
2017-06-15T05:01:52.880Z,18.23
2017-06-15T05:02:33.760Z,18.23
2017-06-15T05:03:14.637Z,18.22
2017-06-15T05:03:55.549Z,18.2
2017-06-15T05:04:36.434Z,18.25
2017-06-15T05:05:17.322Z,18.23
2017-06-15T05:05:58.225Z,18.25
2017-06-15T05:06:39.103Z,18.28
2017-06-15T05:07:19.995Z,18.25
2017-06-15T05:08:00.902Z,18.33
2017-06-15T05:08:41.797Z,18.31
2017-06-15T05:09:22.698Z,18.35
2017-06-15T05:10:03.585Z,18.44
2017-06-15T05:10:44.493Z,18.44
2017-06-15T05:11:25.392Z,18.41
2017-06-15T05:12:06.316Z,18.4
2017-06-15T05:12:47.216Z,18.47
2017-06-15T05:13:28.108Z,18.35
2017-06-15T05:14:09.003Z,18.37
2017-06-15T05:14:49.904Z,18.45
2017-06-15T05:15:30.899Z,18.37
2017-06-15T05:16:11.802Z,18.37
2017-06-15T05:16:52.696Z,18.41
2017-06-15T05:17:33.621Z,18.44
2017-06-15T05:18:14.539Z,18.37
2017-06-15T05:18:55.425Z,18.4
2017-06-15T05:19:36.347Z,18.49
2017-06-15T05:20:17.212Z,18.4
2017-06-15T05:20:58.107Z,18.47
2017-06-15T05:21:39.009Z,18.49
2017-06-15T05:22:19.892Z,18.53
2017-06-15T05:23:00.787Z,18.62
2017-06-15T05:23:41.668Z,18.58
2017-06-15T05:24:22.576Z,18.62
2017-06-15T05:25:03.471Z,18.68
2017-06-15T05:25:44.361Z,18.58
2017-06-15T05:26:25.251Z,18.7
2017-06-15T05:27:06.146Z,18.56
2017-06-15T05:27:47.029Z,18.56
2017-06-15T05:28:27.905Z,18.59
2017-06-15T05:29:08.797Z,18.71
2017-06-15T05:29:49.695Z,18.7
2017-06-15T05:30:30.593Z,18.71
2017-06-15T05:31:11.490Z,18.66
2017-06-15T05:31:52.381Z,18.7
2017-06-15T05:32:33.265Z,18.75
2017-06-15T05:33:14.172Z,18.77
2017-06-15T05:33:55.062Z,18.81
2017-06-15T05:34:35.962Z,18.88
2017-06-15T05:35:16.866Z,18.9
2017-06-15T05:35:57.762Z,18.92
2017-06-15T05:36:38.695Z,18.95
2017-06-15T05:37:19.663Z,19.11
2017-06-15T05:38:00.572Z,19.07
2017-06-15T05:38:41.462Z,19.16
2017-06-15T05:39:22.389Z,19.22
2017-06-15T05:40:03.290Z,19.34
2017-06-15T05:40:44.180Z,19.31
2017-06-15T05:41:25.081Z,19.22
2017-06-15T05:42:05.972Z,19.33
2017-06-15T05:42:46.860Z,19.29
2017-06-15T05:43:27.760Z,19.26
2017-06-15T05:44:08.653Z,19.37
2017-06-15T05:44:49.544Z,19.31
2017-06-15T05:45:30.436Z,19.49
2017-06-15T05:46:11.348Z,19.45
2017-06-15T05:46:52.252Z,19.58
2017-06-15T05:47:33.142Z,19.55
2017-06-15T05:48:14.039Z,19.58
2017-06-15T05:48:54.996Z,19.62
2017-06-15T05:49:35.895Z,19.69
2017-06-15T05:50:16.783Z,19.81
2017-06-15T05:50:57.683Z,19.89
2017-06-15T05:51:38.579Z,19.84
2017-06-15T05:52:19.475Z,19.82
2017-06-15T05:53:00.370Z,19.94
2017-06-15T05:53:41.259Z,19.99
2017-06-15T05:54:22.152Z,19.96
2017-06-15T05:55:03.071Z,20.04
2017-06-15T05:55:43.956Z,20.07
2017-06-15T05:56:24.849Z,20.16
2017-06-15T05:57:05.747Z,20.21
2017-06-15T05:57:46.659Z,20.22
2017-06-15T05:58:27.569Z,20.28
2017-06-15T05:59:08.449Z,20.41
2017-06-15T05:59:49.463Z,20.51
2017-06-15T06:00:30.368Z,20.59
2017-06-15T06:01:11.289Z,20.65
2017-06-15T06:01:52.174Z,20.74
2017-06-15T06:02:33.080Z,20.88
2017-06-15T06:03:13.986Z,20.97
2017-06-15T06:03:54.864Z,21.03
2017-06-15T06:04:35.763Z,21.15
2017-06-15T06:05:16.674Z,21.27
2017-06-15T06:05:57.545Z,21.51
2017-06-15T06:06:38.449Z,21.89
2017-06-15T06:07:19.342Z,22.23
2017-06-15T06:08:00.246Z,22.69
2017-06-15T06:08:41.155Z,23.05
2017-06-15T06:09:22.033Z,23.5
2017-06-15T06:10:02.944Z,23.77
2017-06-15T06:10:43.837Z,24.01
2017-06-15T06:11:24.731Z,24.18
2017-06-15T06:12:05.640Z,24.47
2017-06-15T06:12:46.542Z,24.7
2017-06-15T06:13:27.466Z,24.88
2017-06-15T06:14:08.346Z,25.04
2017-06-15T06:14:49.304Z,25.28
2017-06-15T06:15:30.189Z,25.35
2017-06-15T06:16:11.095Z,25.28
2017-06-15T06:16:51.976Z,25.44
2017-06-15T06:17:32.881Z,25.4
2017-06-15T06:18:13.791Z,25.53
2017-06-15T06:18:54.684Z,25.53
2017-06-15T06:19:35.579Z,25.63
2017-06-15T06:20:16.470Z,25.87
2017-06-15T06:20:57.381Z,25.98
2017-06-15T06:21:38.283Z,26.34
2017-06-15T06:22:19.192Z,26.52
2017-06-15T06:23:00.089Z,26.84
2017-06-15T06:23:40.990Z,27.1
2017-06-15T06:24:21.956Z,27.37
2017-06-15T06:25:02.868Z,27.22
2017-06-15T06:25:43.777Z,27.47
2017-06-15T06:26:24.678Z,27.78
2017-06-15T06:27:42.556Z,28.04
2017-06-15T06:28:23.466Z,27.71
2017-06-15T06:29:04.376Z,28.14
2017-06-15T06:29:45.268Z,28.3
2017-06-15T06:30:26.168Z,28.25
2017-06-15T06:31:07.092Z,27.96
2017-06-15T06:31:47.960Z,27.75
2017-06-15T06:32:28.920Z,27.78
2017-06-15T06:33:09.810Z,27.92
2017-06-15T06:33:50.717Z,27.95
2017-06-15T06:34:31.615Z,28.04
2017-06-15T06:35:12.518Z,28.26
2017-06-15T06:35:53.417Z,28.47
2017-06-15T06:36:34.325Z,28.62
2017-06-15T06:37:15.233Z,28.74
2017-06-15T06:37:56.130Z,27.54
2017-06-15T06:38:37.045Z,27.3
2017-06-15T06:39:17.933Z,27.49
2017-06-15T06:39:58.845Z,27.9
2017-06-15T06:40:39.751Z,28.42
2017-06-15T06:41:20.669Z,28.63
2017-06-15T06:42:01.571Z,28.6
2017-06-15T06:42:42.489Z,28.45
2017-06-15T06:43:23.385Z,28.47
2017-06-15T06:44:04.302Z,28.66
2017-06-15T06:44:45.195Z,28.63
2017-06-15T06:45:26.104Z,28.93
2017-06-15T06:47:04.524Z,29.6
2017-06-15T06:47:45.426Z,29.49
2017-06-15T06:48:26.343Z,29.34
2017-06-15T06:49:07.301Z,29.12
2017-06-15T06:49:48.186Z,27.77
2017-06-15T06:50:29.092Z,28.15
2017-06-15T06:51:09.996Z,28.33
2017-06-15T06:51:50.884Z,28.33
2017-06-15T06:52:31.798Z,28.66
2017-06-15T06:53:12.685Z,28.79
2017-06-15T06:53:53.573Z,29.07
2017-06-15T06:54:34.491Z,29.44
2017-06-15T06:55:15.378Z,29.76
2017-06-15T06:55:56.287Z,29.82
2017-06-15T06:56:37.199Z,29.71
2017-06-15T06:57:18.107Z,29.68
2017-06-15T06:58:56.592Z,29.93
2017-06-15T06:59:37.496Z,30.21
2017-06-15T07:00:18.382Z,30.35
2017-06-15T07:00:59.301Z,30.35
2017-06-15T07:01:40.206Z,29.84
2017-06-15T07:02:21.121Z,30.32
2017-06-15T07:03:02.002Z,30.59
2017-06-15T07:03:42.912Z,30.48
2017-06-15T07:04:23.823Z,30.51
2017-06-15T07:05:04.701Z,30.44
2017-06-15T07:05:45.621Z,30
2017-06-15T07:06:26.512Z,29.79
2017-06-15T07:07:07.427Z,29.68
2017-06-15T07:07:48.324Z,29.39
2017-06-15T07:08:29.247Z,29.36
2017-06-15T07:09:10.146Z,29.31
2017-06-15T07:09:51.044Z,29.47
2017-06-15T07:10:31.994Z,29.65
2017-06-15T07:11:12.900Z,29.54
2017-06-15T07:11:53.833Z,29.69
2017-06-15T07:13:11.717Z,29.57
2017-06-15T07:13:52.629Z,29.56
2017-06-15T07:14:33.529Z,29.78
2017-06-15T07:15:14.465Z,29.87
2017-06-15T07:15:55.392Z,30.09
2017-06-15T07:16:36.299Z,30.25
2017-06-15T07:17:17.209Z,30.3
2017-06-15T07:17:58.108Z,30.37
2017-06-15T07:18:39.016Z,30.3
2017-06-15T07:19:19.918Z,30.4
2017-06-15T07:20:00.810Z,30.4
2017-06-15T07:20:41.735Z,30.3
2017-06-15T07:21:22.641Z,30.08
2017-06-15T07:22:03.555Z,30.08
2017-06-15T07:22:44.428Z,29.87
2017-06-15T07:23:25.328Z,29.66
2017-06-15T07:24:06.230Z,29.56
2017-06-15T07:24:47.139Z,28.75
2017-06-15T07:25:28.059Z,29.01
2017-06-15T07:26:08.965Z,29.27
2017-06-15T07:26:49.865Z,29.35
2017-06-15T07:27:30.785Z,29.36
2017-06-15T07:28:11.693Z,29.2
2017-06-15T07:28:52.597Z,29.19
2017-06-15T07:29:33.515Z,29.04
2017-06-15T07:30:14.430Z,28.84
2017-06-15T07:30:55.325Z,28.72
2017-06-15T07:31:36.227Z,28.27
2017-06-15T07:32:17.168Z,27.73
2017-06-15T07:32:58.076Z,28.27
2017-06-15T07:33:38.976Z,27.82
2017-06-15T07:34:19.883Z,28.37
2017-06-15T07:35:00.786Z,28.52
2017-06-15T07:35:41.699Z,28.63
2017-06-15T07:36:22.610Z,28.7
2017-06-15T07:37:03.524Z,28.7
2017-06-15T07:37:44.437Z,28.63
2017-06-15T07:38:25.311Z,28.78
2017-06-15T07:39:53.471Z,28.59
2017-06-15T07:40:34.382Z,28.47
2017-06-15T07:41:15.279Z,28.47
2017-06-15T07:41:56.190Z,28.32
2017-06-15T07:42:37.093Z,28.47
2017-06-15T07:43:18.017Z,28.52
2017-06-15T07:43:58.911Z,28.56
2017-06-15T07:44:39.844Z,28.54
2017-06-15T07:45:20.730Z,28.44
2017-06-15T07:46:01.644Z,28.25
2017-06-15T07:46:42.547Z,28.23
2017-06-15T07:47:23.476Z,28.12
2017-06-15T07:48:04.393Z,28
2017-06-15T07:48:45.300Z,28
2017-06-15T07:49:26.202Z,27.96
2017-06-15T07:50:07.138Z,27.85
2017-06-15T07:50:48.054Z,27.98
2017-06-15T07:51:28.944Z,28
2017-06-15T07:52:09.856Z,27.95
2017-06-15T07:52:50.757Z,28.19
2017-06-15T07:53:31.665Z,28.33
2017-06-15T07:54:12.563Z,28.51
2017-06-15T07:54:53.445Z,28.54
2017-06-15T07:55:34.379Z,28.81
2017-06-15T07:56:15.277Z,27.78
2017-06-15T07:56:56.222Z,27.29
2017-06-15T07:57:37.136Z,27.93
2017-06-15T07:58:18.040Z,28.47
2017-06-15T07:58:58.950Z,28.63
2017-06-15T07:59:39.859Z,28.84
2017-06-15T08:00:20.798Z,28.91
2017-06-15T08:01:01.704Z,29.02
2017-06-15T08:01:42.621Z,28.86
2017-06-15T08:02:23.535Z,28.78
2017-06-15T08:03:04.453Z,28.69
2017-06-15T08:03:45.364Z,28.63
2017-06-15T08:04:26.276Z,28.54
2017-06-15T08:05:07.191Z,28.72
2017-06-15T08:05:48.095Z,28.76
2017-06-15T08:06:29.004Z,28.82
2017-06-15T08:07:09.909Z,29.1
2017-06-15T08:07:50.822Z,29.17
2017-06-15T08:08:31.735Z,29.23
2017-06-15T08:09:12.650Z,29.5
2017-06-15T08:09:53.552Z,29.75
2017-06-15T08:10:34.462Z,29.68
2017-06-15T08:11:15.360Z,29.82
2017-06-15T08:11:56.257Z,29.81
2017-06-15T08:12:37.161Z,30.02
2017-06-15T08:13:18.064Z,30.08
2017-06-15T08:13:58.993Z,29.91
2017-06-15T08:14:39.901Z,29.93
2017-06-15T08:15:20.827Z,30.06
2017-06-15T08:16:01.738Z,30.09
2017-06-15T08:16:42.643Z,30.23
2017-06-15T08:17:23.555Z,30.37
2017-06-15T08:18:04.458Z,30.05
2017-06-15T08:18:45.376Z,30.15
2017-06-15T08:19:26.282Z,30.39
2017-06-15T08:20:07.193Z,30.43
2017-06-15T08:20:48.107Z,30.32
2017-06-15T08:21:29.023Z,30.23
2017-06-15T08:22:09.935Z,30.08
2017-06-15T08:22:50.855Z,30.05
2017-06-15T08:23:31.765Z,30.02
2017-06-15T08:24:12.683Z,30.02
2017-06-15T08:24:53.602Z,29.94
2017-06-15T08:25:34.507Z,29.66
2017-06-15T08:26:15.443Z,29.65
2017-06-15T08:26:56.351Z,29.82
2017-06-15T08:27:37.265Z,29.91
2017-06-15T08:28:18.177Z,30.05
2017-06-15T08:28:59.102Z,29.01
2017-06-15T08:29:40.063Z,28.66
2017-06-15T08:30:20.947Z,29.22
2017-06-15T08:31:01.859Z,29.13
2017-06-15T08:31:42.771Z,29.34
2017-06-15T08:32:23.698Z,29.44
2017-06-15T08:33:04.613Z,29.57
2017-06-15T08:33:45.524Z,29.65
2017-06-15T08:34:26.436Z,29.78
2017-06-15T08:35:07.337Z,29.84
2017-06-15T08:35:48.274Z,29.95
2017-06-15T08:36:29.178Z,30.1
2017-06-15T08:37:10.087Z,30.13
2017-06-15T08:37:50.995Z,30.23
2017-06-15T08:38:31.899Z,30.18
2017-06-15T08:39:12.812Z,30.21
2017-06-15T08:39:53.730Z,30.15
2017-06-15T08:40:34.691Z,30.39
2017-06-15T08:41:15.596Z,30.55
2017-06-15T08:41:56.508Z,30.55
2017-06-15T08:42:37.416Z,30.8
2017-06-15T08:43:18.326Z,30.92
2017-06-15T08:43:59.233Z,30.97
2017-06-15T08:44:40.161Z,31.37
2017-06-15T08:45:21.090Z,31.47
2017-06-15T08:46:01.999Z,30.88
2017-06-15T08:46:42.919Z,30.83
2017-06-15T08:47:23.826Z,31.09
2017-06-15T08:48:04.737Z,31.28
2017-06-15T08:48:45.647Z,31.64
2017-06-15T08:49:26.559Z,31.65
2017-06-15T08:50:07.469Z,31.36
2017-06-15T08:50:48.377Z,31.34
2017-06-15T08:51:29.305Z,31.81
2017-06-15T08:52:10.218Z,31.59
2017-06-15T08:52:51.142Z,32.14
2017-06-15T08:53:32.059Z,31.65